Time;durP1;ratioP1;P1;durP2;ratioP2;P2;SDS_P1;SDS_P2;PMS_P1;PMS_P2;Temp;Humidity;BMP_temperature;BMP_pressure;BME280_temperature;BME280_humidity;BME280_pressure;Samples;Min_cycle;Max_cycle;Signal;HPM_P1;HPM_P2
2021/01/31 00:00:46;;;;;;;17.25;3.47;;;21.50;99.90;;;;;;6096809;23;20010;-28
2021/01/31 00:03:26;;;;;;;12.00;3.83;;;21.50;99.90;;;;;;6096320;23;20078;-28
2021/01/31 00:05:55;;;;;;;11.05;3.22;;;21.50;99.90;;;;;;6095404;23;20033;-28
2021/01/31 00:08:23;;;;;;;13.95;3.40;;;21.50;99.90;;;;;;6095432;23;20007;-28
2021/01/31 00:10:50;;;;;;;10.98;3.20;;;21.50;99.90;;;;;;6096388;23;19998;-27
2021/01/31 00:13:17;;;;;;;11.82;3.63;;;21.40;99.90;;;;;;6095982;23;20038;-28
2021/01/31 00:15:46;;;;;;;10.90;3.25;;;21.50;99.90;;;;;;6095901;23;20003;-27
2021/01/31 00:18:14;;;;;;;13.40;3.40;;;21.40;99.90;;;;;;6095541;23;20006;-28
2021/01/31 00:20:44;;;;;;;8.20;2.63;;;21.40;99.90;;;;;;6096064;23;20318;-28
2021/01/31 00:23:09;;;;;;;13.63;3.65;;;21.40;99.90;;;;;;6096315;23;20125;-28
2021/01/31 00:25:35;;;;;;;12.27;3.20;;;21.30;99.90;;;;;;6095258;23;20043;-28
2021/01/31 00:28:01;;;;;;;9.13;3.45;;;21.30;99.90;;;;;;6094403;23;20444;-28
2021/01/31 00:30:35;;;;;;;11.75;3.33;;;21.30;99.90;;;;;;6096019;23;20010;-27
2021/01/31 00:33:04;;;;;;;13.00;2.83;;;21.30;99.90;;;;;;6096140;23;20299;-28
2021/01/31 00:35:33;;;;;;;12.07;3.22;;;21.30;99.90;;;;;;6095574;23;20078;-28
2021/01/31 00:37:59;;;;;;;11.38;3.70;;;21.20;99.90;;;;;;6070104;23;20010;-28
2021/01/31 00:40:24;;;;;;;9.60;2.83;;;21.20;99.90;;;;;;6095153;23;20073;-28
2021/01/31 00:42:50;;;;;;;14.35;2.83;;;21.20;99.90;;;;;;6069622;23;20461;-28
2021/01/31 00:45:20;;;;;;;13.60;2.95;;;21.20;99.90;;;;;;6094919;23;19998;-29
2021/01/31 00:47:46;;;;;;;10.52;3.28;;;21.10;99.90;;;;;;6095410;23;20081;-29
2021/01/31 00:50:21;;;;;;;12.77;3.42;;;21.20;99.90;;;;;;6094953;23;20025;-28
2021/01/31 00:52:47;;;;;;;10.60;2.55;;;21.10;99.90;;;;;;6097521;23;20013;-27
2021/01/31 00:55:13;;;;;;;16.33;2.85;;;21.10;99.90;;;;;;6097618;23;20073;-27
2021/01/31 00:57:39;;;;;;;13.55;3.20;;;21.10;99.90;;;;;;6097383;23;19998;-27
2021/01/31 01:00:29;;;;;;;10.02;3.10;;;21.10;99.90;;;;;;6097915;23;20017;-27
2021/01/31 01:02:55;;;;;;;10.45;2.92;;;21.10;99.90;;;;;;6098105;23;20367;-27
2021/01/31 01:05:23;;;;;;;9.40;2.53;;;21.10;99.90;;;;;;6098166;23;20006;-27
2021/01/31 01:07:49;;;;;;;9.35;2.55;;;21.10;99.90;;;;;;6097931;23;20022;-27
2021/01/31 01:10:19;;;;;;;9.63;2.72;;;21.10;99.90;;;;;;6098442;23;20185;-27
2021/01/31 01:12:45;;;;;;;7.93;2.47;;;21.10;99.90;;;;;;6090953;23;20029;-28
2021/01/31 01:15:13;;;;;;;12.85;3.40;;;21.10;99.90;;;;;;6097646;23;20002;-27
2021/01/31 01:17:39;;;;;;;8.05;2.10;;;21.00;99.90;;;;;;6097565;23;20010;-28
2021/01/31 01:20:06;;;;;;;12.13;2.78;;;21.00;99.90;;;;;;6096478;23;20007;-27
2021/01/31 01:22:32;;;;;;;7.10;1.95;;;21.00;99.90;;;;;;6098159;23;20064;-30
2021/01/31 01:25:02;;;;;;;12.13;2.80;;;21.00;99.90;;;;;;6098141;23;20428;-30
2021/01/31 01:27:29;;;;;;;9.65;2.13;;;21.00;99.90;;;;;;6098537;23;20073;-29
2021/01/31 01:29:55;;;;;;;17.37;3.40;;;20.90;99.90;;;;;;6098033;23;20006;-28
2021/01/31 01:32:21;;;;;;;9.43;2.85;;;20.90;99.90;;;;;;6098220;23;20361;-29
2021/01/31 01:34:46;;;;;;;9.80;2.80;;;20.90;99.90;;;;;;6097641;23;20058;-28
2021/01/31 01:37:13;;;;;;;10.75;3.05;;;20.90;99.90;;;;;;6096681;23;20009;-28
2021/01/31 01:39:39;;;;;;;10.48;2.88;;;20.90;99.90;;;;;;6095896;23;20029;-28
2021/01/31 01:42:07;;;;;;;10.57;2.53;;;20.90;99.90;;;;;;6097209;23;20061;-28
2021/01/31 01:44:34;;;;;;;8.38;2.17;;;20.90;99.90;;;;;;6095357;23;20097;-28
2021/01/31 01:47:03;;;;;;;12.55;3.28;;;20.80;99.90;;;;;;6097087;23;20002;-28
2021/01/31 01:49:32;;;;;;;12.98;2.85;;;20.90;99.90;;;;;;6097038;23;20057;-28
2021/01/31 01:52:03;;;;;;;9.30;3.13;;;20.80;99.90;;;;;;6097904;23;20391;-28
2021/01/31 01:54:48;;;;;;;14.35;3.47;;;20.90;99.90;;;;;;6097609;23;20006;-28
2021/01/31 01:57:19;;;;;;;11.82;2.60;;;20.80;99.90;;;;;;6097637;23;20026;-28
2021/01/31 01:59:45;;;;;;;10.55;2.90;;;20.80;99.90;;;;;;6097547;23;20082;-28
2021/01/31 02:02:24;;;;;;;13.02;2.95;;;20.80;99.90;;;;;;6095283;23;20065;-28
2021/01/31 02:04:50;;;;;;;12.48;2.85;;;20.90;99.90;;;;;;6097539;23;20620;-28
2021/01/31 02:07:17;;;;;;;11.40;2.85;;;20.80;99.90;;;;;;6096779;23;20457;-27
2021/01/31 02:09:50;;;;;;;11.88;3.10;;;20.80;99.90;;;;;;6096746;23;20329;-28
2021/01/31 02:12:21;;;;;;;13.38;3.05;;;20.80;99.90;;;;;;6095706;23;20328;-28
2021/01/31 02:14:50;;;;;;;13.90;3.20;;;20.80;99.90;;;;;;6095907;23;20045;-28
2021/01/31 02:17:30;;;;;;;11.80;3.63;;;20.80;99.90;;;;;;6097144;23;20002;-28
2021/01/31 02:20:17;;;;;;;14.60;4.15;;;20.70;99.90;;;;;;6097353;23;20370;-30
2021/01/31 02:22:57;;;;;;;23.73;5.70;;;20.70;99.90;;;;;;6097835;23;20061;-28
2021/01/31 02:25:29;;;;;;;7.75;2.55;;;20.70;99.90;;;;;;6097293;23;20030;-28
2021/01/31 02:28:26;;;;;;;16.10;3.30;;;20.70;99.90;;;;;;6097263;23;20030;-28
2021/01/31 02:31:13;;;;;;;13.80;3.65;;;20.60;99.90;;;;;;6097109;23;20469;-28
2021/01/31 02:33:54;;;;;;;14.18;2.92;;;20.60;99.90;;;;;;6097556;23;20010;-28
2021/01/31 02:36:34;;;;;;;12.40;3.03;;;20.60;99.90;;;;;;6097256;23;19999;-28
2021/01/31 02:39:23;;;;;;;14.52;2.80;;;20.60;99.90;;;;;;6097348;23;20073;-27
2021/01/31 02:42:00;;;;;;;12.38;4.28;;;20.60;99.90;;;;;;6096366;23;20011;-28
2021/01/31 02:44:28;;;;;;;11.73;2.80;;;20.60;99.90;;;;;;6097109;23;20013;-28
2021/01/31 02:47:01;;;;;;;10.07;2.65;;;20.60;99.90;;;;;;6071623;23;20002;-28
2021/01/31 02:49:38;;;;;;;14.45;3.28;;;20.60;99.90;;;;;;6071232;23;20006;-27
2021/01/31 02:52:16;;;;;;;13.93;3.33;;;20.50;99.90;;;;;;6071665;23;20037;-28
2021/01/31 02:54:42;;;;;;;10.60;3.00;;;20.50;99.90;;;;;;6097133;23;20005;-28
2021/01/31 02:57:20;;;;;;;8.13;3.10;;;20.50;99.90;;;;;;6097224;23;20002;-28
2021/01/31 02:59:50;;;;;;;;;;;20.40;99.90;;;;;;6097362;23;20014;-28
2021/01/31 03:02:21;;;;;;;14.82;3.58;;;20.50;99.90;;;;;;6097261;23;19901;-28
2021/01/31 03:04:58;;;;;;;13.23;2.80;;;20.50;99.90;;;;;;6096770;23;20410;-29
2021/01/31 03:07:30;;;;;;;12.88;3.22;;;20.50;99.90;;;;;;6097142;23;20440;-28
2021/01/31 03:10:02;;;;;;;10.23;2.95;;;20.40;99.90;;;;;;6097128;23;20049;-28
2021/01/31 03:12:38;;;;;;;12.82;4.07;;;20.40;99.90;;;;;;6096702;23;20014;-28
2021/01/31 03:15:15;;;;;;;11.02;3.78;;;20.40;99.90;;;;;;6095622;23;20053;-27
2021/01/31 03:18:06;;;;;;;11.52;3.85;;;20.40;99.90;;;;;;6095941;23;20522;-28
2021/01/31 03:20:37;;;;;;;11.73;3.33;;;20.40;99.90;;;;;;6094773;23;20041;-28
2021/01/31 03:23:26;;;;;;;12.02;3.08;;;20.40;99.90;;;;;;6096018;23;20425;-28
2021/01/31 03:25:58;;;;;;;14.45;3.33;;;20.40;99.90;;;;;;6096810;23;20437;-27
2021/01/31 03:28:24;;;;;;;14.82;3.75;;;20.40;99.90;;;;;;6096748;23;20013;-28
2021/01/31 03:30:51;;;;;;;12.55;3.67;;;20.40;99.90;;;;;;6096913;23;20002;-28
2021/01/31 03:33:25;;;;;;;14.93;3.00;;;20.30;99.90;;;;;;6096615;23;20318;-28
2021/01/31 03:35:53;;;;;;;12.52;3.53;;;20.30;99.90;;;;;;6096922;23;20011;-28
2021/01/31 03:38:25;;;;;;;12.65;3.22;;;20.30;99.90;;;;;;6096693;23;20422;-27
2021/01/31 03:40:56;;;;;;;23.95;3.95;;;20.30;99.90;;;;;;6071201;23;20007;-28
2021/01/31 03:43:22;;;;;;;13.02;3.05;;;20.30;99.90;;;;;;6096723;23;20030;-28
2021/01/31 03:46:06;;;;;;;15.27;3.30;;;20.30;99.90;;;;;;6071258;23;20012;-28
2021/01/31 03:48:58;;;;;;;12.45;3.05;;;20.30;99.90;;;;;;6096517;23;20007;-28
2021/01/31 03:51:25;;;;;;;13.90;3.78;;;20.30;99.90;;;;;;6081248;23;20053;-28
2021/01/31 03:53:51;;;;;;;17.70;3.72;;;20.30;99.90;;;;;;6096734;23;20022;-27
2021/01/31 03:56:31;;;;;;;13.27;3.40;;;20.30;99.90;;;;;;6071266;23;20006;-28
2021/01/31 03:58:59;;;;;;;11.52;3.13;;;20.30;99.90;;;;;;6096926;23;20369;-28
2021/01/31 04:01:28;;;;;;;12.98;3.90;;;20.30;99.90;;;;;;6096516;23;20448;-27
2021/01/31 04:04:04;;;;;;;13.85;3.30;;;20.30;99.90;;;;;;6096880;23;20006;-28
2021/01/31 04:06:36;;;;;;;15.23;3.20;;;20.30;99.90;;;;;;6097260;23;20006;-28
2021/01/31 04:09:05;;;;;;;10.13;3.42;;;20.30;99.90;;;;;;6096753;23;20078;-28
2021/01/31 04:11:33;;;;;;;17.30;4.43;;;20.30;99.90;;;;;;6096465;23;20434;-28
2021/01/31 04:14:22;;;;;;;12.85;3.88;;;20.30;99.90;;;;;;6096879;23;20006;-28
2021/01/31 04:16:50;;;;;;;10.60;3.45;;;20.30;99.90;;;;;;6095978;23;20010;-28
2021/01/31 04:19:17;;;;;;;11.68;3.70;;;20.30;99.90;;;;;;6096868;23;20010;-28
2021/01/31 04:21:43;;;;;;;10.43;3.63;;;20.30;99.90;;;;;;6096578;23;20129;-28
2021/01/31 04:24:10;;;;;;;12.98;3.40;;;20.30;99.90;;;;;;6096552;23;20034;-28
2021/01/31 04:26:36;;;;;;;8.50;2.75;;;20.20;99.90;;;;;;6098364;23;20101;-29
2021/01/31 04:29:03;;;;;;;12.75;3.20;;;20.30;99.90;;;;;;6098758;23;20791;-28
2021/01/31 04:31:29;;;;;;;17.58;4.75;;;20.30;99.90;;;;;;6098815;23;20007;-28
2021/01/31 04:33:55;;;;;;;12.98;3.58;;;20.20;99.90;;;;;;6098302;23;19999;-28
2021/01/31 04:36:22;;;;;;;11.15;3.28;;;20.20;99.90;;;;;;6098510;23;20001;-28
2021/01/31 04:38:48;;;;;;;11.85;2.97;;;20.20;99.90;;;;;;6098453;23;20006;-27
2021/01/31 04:41:15;;;;;;;16.42;4.22;;;20.20;99.90;;;;;;6098374;23;20007;-28
2021/01/31 04:43:42;;;;;;;14.05;3.20;;;20.20;99.90;;;;;;6098281;23;20002;-27
2021/01/31 04:46:14;;;;;;;11.20;3.53;;;20.20;99.90;;;;;;6098570;23;20307;-28
2021/01/31 04:49:02;;;;;;;15.07;3.28;;;20.20;99.90;;;;;;6098077;23;20350;-28
2021/01/31 04:51:57;;;;;;;14.48;3.40;;;20.20;99.90;;;;;;6098351;23;20026;-28
2021/01/31 04:54:34;;;;;;;11.73;2.83;;;20.20;99.90;;;;;;6098465;23;20005;-28
2021/01/31 04:57:11;;;;;;;14.75;3.42;;;20.20;99.90;;;;;;6098260;23;20003;-28
2021/01/31 04:59:43;;;;;;;10.43;3.53;;;20.20;99.90;;;;;;6072695;23;20329;-27
2021/01/31 05:02:23;;;;;;;16.60;4.78;;;20.20;99.90;;;;;;6098014;23;20009;-28
2021/01/31 05:04:55;;;;;;;11.35;3.45;;;20.10;99.90;;;;;;6098176;23;20009;-27
2021/01/31 05:07:47;;;;;;;15.05;3.25;;;20.10;99.90;;;;;;6097794;23;20002;-28
2021/01/31 05:10:13;;;;;;;14.15;2.92;;;20.10;99.90;;;;;;6096866;23;20065;-28
2021/01/31 05:13:17;;;;;;;14.70;4.38;;;20.10;99.90;;;;;;6095657;23;20018;-27
2021/01/31 05:15:58;;;;;;;9.23;2.92;;;20.10;99.90;;;;;;6070827;23;20013;-28
2021/01/31 05:18:25;;;;;;;13.52;3.00;;;20.10;99.90;;;;;;6096775;23;20021;-28
2021/01/31 05:20:58;;;;;;;15.05;3.40;;;20.10;99.90;;;;;;6096427;23;20006;-28
2021/01/31 05:23:25;;;;;;;12.35;3.55;;;20.20;99.90;;;;;;6070465;23;20014;-29
2021/01/31 05:25:50;;;;;;;13.10;3.42;;;20.10;99.90;;;;;;6097151;23;20065;-28
2021/01/31 05:28:19;;;;;;;12.88;3.63;;;20.10;99.90;;;;;;6098203;23;20034;-28
2021/01/31 05:30:45;;;;;;;20.58;3.38;;;20.10;99.90;;;;;;6097870;23;20002;-28
2021/01/31 05:33:23;;;;;;;15.20;3.28;;;20.10;99.90;;;;;;6097809;23;20109;-28
2021/01/31 05:36:12;;;;;;;13.82;3.38;;;20.00;99.90;;;;;;6097654;23;20003;-28
2021/01/31 05:38:41;;;;;;;15.70;4.03;;;20.00;99.90;;;;;;6097943;23;20002;-28
2021/01/31 05:41:28;;;;;;;8.60;2.83;;;20.00;99.90;;;;;;6098135;23;20073;-28
2021/01/31 05:44:21;;;;;;;13.30;3.17;;;20.00;99.90;;;;;;6098133;23;20002;-28
2021/01/31 05:46:56;;;;;;;13.13;4.95;;;20.10;99.90;;;;;;6072362;23;20013;-28
2021/01/31 05:49:42;;;;;;;24.23;10.52;;;20.00;99.90;;;;;;6097643;23;20002;-27
2021/01/31 05:52:22;;;;;;;191.45;162.38;;;20.00;99.90;;;;;;6098135;23;20069;-27
2021/01/31 05:54:50;;;;;;;196.73;166.48;;;20.00;99.90;;;;;;6097790;23;20022;-28
2021/01/31 05:57:28;;;;;;;178.40;147.75;;;20.00;99.90;;;;;;6097589;23;20006;-28
2021/01/31 05:59:55;;;;;;;185.07;152.43;;;20.00;99.90;;;;;;6096933;23;20011;-28
2021/01/31 06:02:32;;;;;;;174.67;141.20;;;20.00;99.90;;;;;;6097517;23;20325;-28
2021/01/31 06:05:14;;;;;;;168.60;139.57;;;20.00;99.90;;;;;;6098129;23;20086;-28
2021/01/31 06:07:43;;;;;;;140.50;113.35;;;20.00;99.90;;;;;;6097546;23;20002;-28
2021/01/31 06:10:14;;;;;;;139.60;112.10;;;20.10;99.90;;;;;;6097455;23;20017;-28
2021/01/31 06:12:43;;;;;;;133.95;106.95;;;20.00;99.90;;;;;;6097242;23;20394;-28
2021/01/31 06:15:33;;;;;;;116.25;94.28;;;20.10;99.90;;;;;;6097320;23;20009;-28
2021/01/31 06:18:04;;;;;;;119.32;94.15;;;20.00;99.90;;;;;;6096957;23;20006;-28
2021/01/31 06:20:34;;;;;;;112.70;93.60;;;20.00;99.90;;;;;;6096854;23;19998;-27
2021/01/31 06:23:02;;;;;;;111.28;89.95;;;20.10;99.90;;;;;;6096402;23;19998;-28
2021/01/31 06:25:28;;;;;;;108.68;86.50;;;20.10;99.90;;;;;;6095511;23;20074;-28
2021/01/31 06:28:16;;;;;;;106.43;82.80;;;20.10;99.90;;;;;;6096641;23;20369;-28
2021/01/31 06:30:53;;;;;;;97.00;80.13;;;20.10;99.90;;;;;;6095483;23;20094;-29
2021/01/31 06:33:19;;;;;;;97.47;78.78;;;20.10;99.90;;;;;;6097655;23;20005;-30
2021/01/31 06:35:45;;;;;;;90.88;71.68;;;20.10;99.90;;;;;;6097112;23;20458;-30
2021/01/31 06:38:26;;;;;;;88.50;70.05;;;20.10;99.90;;;;;;6097383;23;20003;-29
2021/01/31 06:41:19;;;;;;;83.53;66.50;;;20.10;99.90;;;;;;6096809;23;20327;-26
2021/01/31 06:44:11;;;;;;;85.85;65.97;;;20.10;99.90;;;;;;6097483;23;20009;-26
2021/01/31 06:46:50;;;;;;;77.32;61.15;;;20.20;99.90;;;;;;6097262;23;20436;-26
2021/01/31 06:49:35;;;;;;;79.60;59.55;;;20.20;99.90;;;;;;6097044;23;20011;-26
2021/01/31 06:52:11;;;;;;;74.32;56.78;;;20.20;99.90;;;;;;6097293;23;20073;-26
2021/01/31 06:54:57;;;;;;;71.70;55.38;;;20.10;99.90;;;;;;6097331;23;20006;-26
2021/01/31 06:57:25;;;;;;;64.80;50.47;;;20.20;99.90;;;;;;6097240;23;20058;-26
2021/01/31 07:00:10;;;;;;;62.28;48.90;;;20.20;99.90;;;;;;6095566;23;20061;-26
2021/01/31 07:03:00;;;;;;;62.53;48.20;;;20.20;99.90;;;;;;6096847;23;20501;-26
2021/01/31 07:05:43;;;;;;;60.88;47.35;;;20.20;99.90;;;;;;6092715;23;20014;-25
2021/01/31 07:09:07;;;;;;;57.15;43.30;;;20.20;99.90;;;;;;6095797;23;20010;-26
2021/01/31 07:11:47;;;;;;;49.25;40.13;;;20.10;99.90;;;;;;5948220;24;20027;-25
2021/01/31 07:14:27;;;;;;;51.58;38.72;;;20.20;99.90;;;;;;5980198;24;20004;-26
2021/01/31 07:16:59;;;;;;;49.40;36.78;;;20.10;99.90;;;;;;5979839;24;20379;-26
2021/01/31 07:19:37;;;;;;;38.85;25.73;;;20.20;99.90;;;;;;5980415;24;20008;-25
2021/01/31 07:22:26;;;;;;;44.42;30.15;;;20.20;99.90;;;;;;5980631;24;20038;-26
2021/01/31 07:25:12;;;;;;;39.72;27.63;;;20.10;99.90;;;;;;5980446;24;20095;-27
2021/01/31 07:27:38;;;;;;;38.65;27.50;;;20.10;99.90;;;;;;5979585;24;20011;-26
2021/01/31 07:30:16;;;;;;;37.65;26.60;;;20.10;99.90;;;;;;5979854;24;20148;-26
2021/01/31 07:33:08;;;;;;;42.95;25.75;;;20.10;99.90;;;;;;5980028;24;20052;-26
2021/01/31 07:35:59;;;;;;;38.78;24.90;;;20.10;99.90;;;;;;5979701;24;20091;-26
2021/01/31 07:38:31;;;;;;;35.80;23.58;;;20.10;99.90;;;;;;5949665;24;20024;-26
2021/01/31 07:40:57;;;;;;;34.88;22.85;;;20.10;99.90;;;;;;5979739;24;20091;-26
2021/01/31 07:43:28;;;;;;;30.77;18.45;;;20.10;99.90;;;;;;6088861;23;20013;-26
2021/01/31 07:46:16;;;;;;;170.68;145.70;;;20.20;99.90;;;;;;6095627;23;20366;-29
2021/01/31 07:48:45;;;;;;;63.38;43.08;;;20.10;99.90;;;;;;6095676;23;20054;-29
2021/01/31 07:51:27;;;;;;;71.40;48.97;;;20.20;99.90;;;;;;6095965;23;20006;-29
2021/01/31 07:53:54;;;;;;;65.88;45.78;;;20.20;99.90;;;;;;6096090;23;20028;-29
2021/01/31 07:56:23;;;;;;;60.50;42.22;;;20.20;99.90;;;;;;6094170;23;20374;-28
2021/01/31 07:58:49;;;;;;;59.08;40.80;;;20.20;99.90;;;;;;6094655;23;20007;-29
2021/01/31 08:01:37;;;;;;;55.00;38.60;;;20.20;99.90;;;;;;6097472;23;20003;-29
2021/01/31 08:04:15;;;;;;;88.47;61.70;;;20.30;99.90;;;;;;6098363;23;20007;-30
2021/01/31 08:06:46;;;;;;;66.43;47.75;;;20.30;99.90;;;;;;6098099;23;20473;-29
2021/01/31 08:09:27;;;;;;;70.15;50.53;;;20.30;99.90;;;;;;6097980;23;20006;-29
2021/01/31 08:12:06;;;;;;;61.30;45.20;;;20.30;99.90;;;;;;6097870;23;20025;-31
2021/01/31 08:15:01;;;;;;;54.95;39.85;;;20.30;99.90;;;;;;6097443;23;19998;-29
2021/01/31 08:17:36;;;;;;;47.65;34.17;;;20.40;99.90;;;;;;6097427;23;20009;-34
2021/01/31 08:20:17;;;;;;;45.55;31.55;;;20.40;99.90;;;;;;6098319;23;20006;-29
2021/01/31 08:22:44;;;;;;;42.22;29.30;;;20.40;99.90;;;;;;6097881;23;20002;-29
2021/01/31 08:25:13;;;;;;;39.60;28.20;;;20.40;99.90;;;;;;6098164;23;20006;-28
2021/01/31 08:27:40;;;;;;;35.83;24.55;;;20.40;99.90;;;;;;6096330;23;20472;-29
2021/01/31 08:30:38;;;;;;;32.95;22.63;;;20.50;99.90;;;;;;6098353;23;20038;-29
2021/01/31 08:33:27;;;;;;;30.02;19.90;;;20.50;99.90;;;;;;6097620;23;20005;-29
2021/01/31 08:35:55;;;;;;;31.52;18.27;;;20.50;99.90;;;;;;6097608;23;20009;-29
2021/01/31 08:38:32;;;;;;;25.75;16.38;;;20.50;99.90;;;;;;6098282;23;20003;-29
2021/01/31 08:41:03;;;;;;;30.50;15.90;;;20.50;99.90;;;;;;6098171;23;19998;-29
2021/01/31 08:43:30;;;;;;;25.23;13.30;;;20.50;99.90;;;;;;6098879;23;20670;-29
2021/01/31 08:46:22;;;;;;;21.77;12.65;;;20.50;99.90;;;;;;6098063;23;20609;-29
2021/01/31 08:48:58;;;;;;;17.58;11.55;;;20.60;99.90;;;;;;6092314;23;20086;-29
2021/01/31 08:51:24;;;;;;;20.02;11.45;;;20.60;99.90;;;;;;6097877;23;20141;-29
2021/01/31 08:54:07;;;;;;;20.98;10.32;;;20.70;99.90;;;;;;6097938;23;20049;-29
2021/01/31 08:56:37;;;;;;;18.35;9.75;;;20.70;99.90;;;;;;6098051;23;20085;-29
2021/01/31 08:59:05;;;;;;;19.58;9.95;;;20.70;99.90;;;;;;6071320;23;20037;-29
2021/01/31 09:01:42;;;;;;;17.48;9.25;;;20.70;99.90;;;;;;6071121;23;20006;-29
2021/01/31 09:04:14;;;;;;;17.83;7.90;;;20.80;99.90;;;;;;6095878;23;20018;-29
2021/01/31 09:06:42;;;;;;;15.48;6.20;;;20.80;99.90;;;;;;6097385;23;20500;-29
2021/01/31 09:09:18;;;;;;;19.20;11.50;;;20.80;99.90;;;;;;6097672;23;20013;-29
2021/01/31 09:11:44;;;;;;;23.30;14.55;;;20.80;99.90;;;;;;6097391;23;20097;-29
2021/01/31 09:14:18;;;;;;;187.23;143.05;;;20.80;99.90;;;;;;6072228;23;20056;-28
2021/01/31 09:16:44;;;;;;;49.53;35.28;;;20.80;99.90;;;;;;6097625;23;20013;-29
2021/01/31 09:19:22;;;;;;;42.28;32.47;;;20.70;99.90;;;;;;6071993;23;20319;-26
2021/01/31 09:21:50;;;;;;;40.13;28.15;;;20.70;99.90;;;;;;6097846;23;20010;-26
2021/01/31 09:24:19;;;;;;;26.65;21.23;;;20.80;99.90;;;;;;6097803;23;20010;-26
2021/01/31 09:26:58;;;;;;;25.20;17.30;;;20.80;99.90;;;;;;6097619;23;20326;-26
2021/01/31 09:29:27;;;;;;;20.52;12.25;;;20.90;99.90;;;;;;6097409;23;20422;-26
2021/01/31 09:32:01;;;;;;;19.48;10.95;;;20.90;99.90;;;;;;6097794;23;20423;-26
2021/01/31 09:34:28;;;;;;;18.45;10.32;;;20.90;99.90;;;;;;6097846;23;20003;-26
2021/01/31 09:37:09;;;;;;;13.80;7.93;;;21.00;99.90;;;;;;6072047;23;20333;-26
2021/01/31 09:39:37;;;;;;;12.30;6.13;;;21.00;99.90;;;;;;6072104;23;20434;-26
2021/01/31 09:42:05;;;;;;;11.60;4.75;;;21.00;99.90;;;;;;6098065;23;20032;-26
2021/01/31 09:44:34;;;;;;;11.25;4.32;;;21.10;99.90;;;;;;6097976;23;20010;-26
2021/01/31 09:47:01;;;;;;;8.05;3.88;;;21.00;99.90;;;;;;6097122;23;20064;-26
2021/01/31 09:49:28;;;;;;;11.68;3.95;;;21.00;99.90;;;;;;6071663;23;20007;-26
2021/01/31 09:52:08;;;;;;;7.85;2.97;;;21.00;99.90;;;;;;6097217;23;20325;-26
2021/01/31 09:54:35;;;;;;;8.68;2.97;;;21.00;99.90;;;;;;6097136;23;20006;-26
2021/01/31 09:57:05;;;;;;;7.38;2.55;;;21.00;99.90;;;;;;6097456;23;20058;-26
2021/01/31 09:59:34;;;;;;;30.80;21.80;;;21.00;99.90;;;;;;6096870;23;20006;-26
2021/01/31 10:02:10;;;;;;;22.50;14.20;;;21.10;99.90;;;;;;6097007;23;20032;-26
2021/01/31 10:04:39;;;;;;;13.60;7.95;;;21.00;99.90;;;;;;6095420;23;20010;-26
2021/01/31 10:07:14;;;;;;;55.55;44.80;;;21.10;99.90;;;;;;6096182;23;20481;-26
2021/01/31 10:09:43;;;;;;;39.78;28.92;;;21.10;99.90;;;;;;6070395;23;20014;-26
2021/01/31 10:12:30;;;;;;;20.70;13.15;;;21.20;99.90;;;;;;6095956;23;20089;-26
2021/01/31 10:15:08;;;;;;;18.83;8.27;;;21.10;99.90;;;;;;6095417;23;20010;-26
2021/01/31 10:17:36;;;;;;;7.60;3.53;;;21.10;99.90;;;;;;6095218;23;20026;-26
2021/01/31 10:20:37;;;;;;;9.93;5.20;;;21.10;99.90;;;;;;6071036;23;20010;-26
2021/01/31 10:23:06;;;;;;;9.80;3.10;;;21.10;99.90;;;;;;6095612;23;20010;-26
2021/01/31 10:25:37;;;;;;;6.90;2.22;;;21.10;99.90;;;;;;6096156;23;20034;-26
2021/01/31 10:28:05;;;;;;;19.77;12.73;;;21.00;99.90;;;;;;6095943;23;20013;-25
2021/01/31 10:30:44;;;;;;;18.63;10.18;;;21.10;99.90;;;;;;6096927;23;20050;-26
2021/01/31 10:33:41;;;;;;;10.60;6.05;;;21.10;99.90;;;;;;6096055;23;20007;-26
2021/01/31 10:36:25;;;;;;;11.40;5.03;;;21.00;99.90;;;;;;6095887;23;20061;-26
2021/01/31 10:39:12;;;;;;;62.70;44.92;;;21.10;99.90;;;;;;6096369;23;20017;-26
2021/01/31 10:41:39;;;;;;;42.97;24.17;;;21.10;99.90;;;;;;6076461;23;20021;-24
2021/01/31 10:44:07;;;;;;;14.32;6.25;;;21.20;99.90;;;;;;6097134;23;20424;-25
2021/01/31 10:46:35;;;;;;;26.52;14.80;;;21.10;99.90;;;;;;6096479;23;20002;-25
2021/01/31 10:49:01;;;;;;;23.58;14.05;;;21.20;99.90;;;;;;6096775;23;20006;-25
2021/01/31 10:51:32;;;;;;;15.93;7.50;;;21.30;99.90;;;;;;6071045;23;20361;-26
2021/01/31 10:53:59;;;;;;;10.20;4.25;;;21.30;99.90;;;;;;6096487;23;20426;-25
2021/01/31 10:56:25;;;;;;;10.18;3.10;;;21.30;99.90;;;;;;6096926;23;20437;-25
2021/01/31 10:58:51;;;;;;;28.27;17.55;;;21.30;99.90;;;;;;6096932;23;20070;-25
2021/01/31 11:01:18;;;;;;;26.73;15.80;;;21.30;99.90;;;;;;6096925;23;20026;-25
2021/01/31 11:03:44;;;;;;;41.97;32.03;;;21.40;99.90;;;;;;6096861;23;20007;-25
2021/01/31 11:06:10;;;;;;;23.05;13.63;;;21.50;99.90;;;;;;6096751;23;20006;-25
2021/01/31 11:08:36;;;;;;;25.67;17.00;;;21.40;99.90;;;;;;6096772;23;20014;-25
2021/01/31 11:11:02;;;;;;;25.02;15.20;;;21.50;99.90;;;;;;6096495;23;20002;-25
2021/01/31 11:13:28;;;;;;;12.90;6.75;;;21.50;99.90;;;;;;6096672;23;20002;-25
2021/01/31 11:15:54;;;;;;;10.82;3.80;;;21.60;99.90;;;;;;6097074;23;20003;-25
2021/01/31 11:18:20;;;;;;;6.47;1.85;;;21.60;99.90;;;;;;6096537;23;19998;-25
2021/01/31 11:20:47;;;;;;;8.20;2.33;;;21.60;99.90;;;;;;6071176;23;20007;-25
2021/01/31 11:23:14;;;;;;;7.05;2.20;;;21.60;99.90;;;;;;6096898;23;20009;-25
2021/01/31 11:25:39;;;;;;;8.90;2.92;;;21.70;99.90;;;;;;6096556;23;20006;-25
2021/01/31 11:28:05;;;;;;;9.45;2.97;;;21.80;99.90;;;;;;6096837;23;20092;-25
2021/01/31 11:30:31;;;;;;;13.52;4.45;;;21.80;99.90;;;;;;6071138;23;20011;-25
2021/01/31 11:32:59;;;;;;;8.85;3.72;;;21.80;99.90;;;;;;6096746;23;20003;-25
2021/01/31 11:35:25;;;;;;;;;;;21.90;99.90;;;;;;6096296;23;20375;-25
2021/01/31 11:37:51;;;;;;;13.10;3.40;;;22.10;99.90;;;;;;6095779;23;19945;-25
2021/01/31 11:40:18;;;;;;;21.70;3.72;;;22.10;99.90;;;;;;6095805;23;20002;-25
2021/01/31 11:42:44;;;;;;;7.35;2.28;;;22.20;99.90;;;;;;6095963;23;20444;-25
2021/01/31 11:45:12;;;;;;;14.43;2.53;;;22.20;99.90;;;;;;6095284;23;20003;-25
2021/01/31 11:47:38;;;;;;;;;;;22.20;99.90;;;;;;6096106;23;20418;-25
2021/01/31 11:50:06;;;;;;;10.48;3.72;;;22.30;99.90;;;;;;6096245;23;19905;-25
2021/01/31 11:52:32;;;;;;;8.38;2.95;;;22.20;99.90;;;;;;6096386;23;20024;-25
2021/01/31 11:54:58;;;;;;;7.40;2.60;;;22.30;99.90;;;;;;6095649;23;20073;-25
2021/01/31 11:57:24;;;;;;;7.63;2.22;;;22.30;99.90;;;;;;6094334;23;20012;-25
2021/01/31 11:59:50;;;;;;;10.82;4.10;;;22.30;99.90;;;;;;6095972;23;20010;-25
2021/01/31 12:02:16;;;;;;;26.58;14.98;;;22.30;99.90;;;;;;6095623;23;20369;-24
2021/01/31 12:04:41;;;;;;;38.97;19.05;;;22.40;99.90;;;;;;6096162;23;20010;-24
2021/01/31 12:07:09;;;;;;;16.90;6.90;;;22.50;99.90;;;;;;6095853;23;20037;-24
2021/01/31 12:09:35;;;;;;;11.98;5.45;;;22.50;99.90;;;;;;6095977;23;20384;-24
2021/01/31 12:12:02;;;;;;;12.35;4.65;;;22.50;99.90;;;;;;6096394;23;20014;-24
2021/01/31 12:14:28;;;;;;;27.83;8.73;;;22.60;99.90;;;;;;6096593;23;20042;-24
2021/01/31 12:16:54;;;;;;;14.25;3.88;;;22.60;99.90;;;;;;6096392;23;20005;-24
2021/01/31 12:19:23;;;;;;;11.80;2.40;;;22.60;99.90;;;;;;6096663;23;20006;-24
2021/01/31 12:21:52;;;;;;;10.98;3.33;;;22.60;99.90;;;;;;6096565;23;20066;-24
2021/01/31 12:24:18;;;;;;;13.02;3.00;;;22.70;99.90;;;;;;6071695;23;20495;-24
2021/01/31 12:26:44;;;;;;;10.73;2.22;;;22.60;99.90;;;;;;6096443;23;20003;-24
2021/01/31 12:29:14;;;;;;;11.52;3.03;;;22.70;99.90;;;;;;6096612;23;20026;-24
2021/01/31 12:31:40;;;;;;;16.33;3.75;;;22.60;99.90;;;;;;6096753;23;20406;-24
2021/01/31 12:34:06;;;;;;;20.83;12.43;;;22.60;99.90;;;;;;6096212;23;20009;-24
2021/01/31 12:36:32;;;;;;;9.18;4.70;;;22.60;99.90;;;;;;6069837;23;20006;-24
2021/01/31 12:38:58;;;;;;;11.88;5.70;;;22.50;99.90;;;;;;6096132;23;20033;-24
2021/01/31 12:41:24;;;;;;;11.35;4.05;;;22.50;99.90;;;;;;6096596;23;20010;-24
2021/01/31 12:43:50;;;;;;;7.07;3.42;;;22.50;99.90;;;;;;6094880;23;20006;-24
2021/01/31 12:46:17;;;;;;;8.40;2.72;;;22.60;99.90;;;;;;6096329;23;20034;-24
2021/01/31 12:48:43;;;;;;;12.18;3.58;;;22.60;99.90;;;;;;6098223;23;20018;-24
2021/01/31 12:51:08;;;;;;;9.65;2.78;;;22.60;99.90;;;;;;6097940;23;20010;-24
2021/01/31 12:53:34;;;;;;;8.82;2.67;;;22.60;99.90;;;;;;6098249;23;20387;-24
2021/01/31 12:56:00;;;;;;;14.63;6.45;;;22.60;99.90;;;;;;6097532;23;20054;-24
2021/01/31 12:58:26;;;;;;;15.38;10.30;;;22.50;99.90;;;;;;6098532;23;20010;-24
2021/01/31 13:00:52;;;;;;;21.75;10.73;;;22.50;99.90;;;;;;6098071;23;20006;-25
2021/01/31 13:03:18;;;;;;;17.05;9.90;;;22.40;99.90;;;;;;6097952;23;19998;-27